Time;durP1;ratioP1;P1;durP2;ratioP2;P2;SDS_P1;SDS_P2;PMS_P1;PMS_P2;Temp;Humidity;BMP_temperature;BMP_pressure;BME280_temperature;BME280_humidity;BME280_pressure;Samples;Min_cycle;Max_cycle;Signal;HPM_P1;HPM_P2
2021/06/09 00:00:04;;;;;;;9.80;8.40;;;17.40;95.80;;;;;;5088614;28;20248;-73
2021/06/09 00:02:29;;;;;;;9.07;7.07;;;17.40;96.10;;;;;;5065080;28;20334;-73
2021/06/09 00:04:55;;;;;;;8.30;7.27;;;17.60;94.20;;;;;;5072156;28;20236;-72
2021/06/09 00:07:20;;;;;;;9.00;8.17;;;17.60;94.30;;;;;;5072593;28;20666;-72
2021/06/09 00:09:46;;;;;;;10.17;8.07;;;17.70;93.80;;;;;;5063169;28;20299;-72
2021/06/09 00:12:12;;;;;;;9.37;7.63;;;17.70;93.60;;;;;;5066136;28;20231;-71
2021/06/09 00:14:37;;;;;;;10.70;7.13;;;17.80;93.40;;;;;;5074530;28;20324;-72
2021/06/09 00:17:03;;;;;;;10.30;8.23;;;17.80;93.30;;;;;;5069004;28;20219;-72
2021/06/09 00:19:29;;;;;;;9.33;7.70;;;17.80;93.40;;;;;;5070601;28;20216;-72
2021/06/09 00:21:56;;;;;;;9.23;7.70;;;17.80;93.10;;;;;;5071254;28;20273;-72
2021/06/09 00:24:23;;;;;;;9.93;7.47;;;17.80;92.70;;;;;;5076229;28;20235;-72
2021/06/09 00:26:51;;;;;;;8.77;7.73;;;17.80;92.70;;;;;;5067081;28;20235;-72
2021/06/09 00:29:17;;;;;;;8.00;7.20;;;17.80;92.70;;;;;;5077446;28;20236;-71
2021/06/09 00:31:42;;;;;;;8.37;7.57;;;17.80;92.70;;;;;;5069819;28;20246;-72
2021/06/09 00:34:08;;;;;;;9.90;8.90;;;17.80;92.40;;;;;;5071252;28;20197;-71
2021/06/09 00:36:34;;;;;;;8.87;7.97;;;17.80;92.30;;;;;;5068839;28;20240;-72
2021/06/09 00:38:59;;;;;;;9.30;7.70;;;17.70;92.30;;;;;;5067593;28;20258;-72
2021/06/09 00:41:25;;;;;;;8.20;6.53;;;17.80;92.70;;;;;;5070486;28;20256;-72
2021/06/09 00:43:52;;;;;;;9.27;7.23;;;17.80;92.30;;;;;;5074901;28;20223;-71
2021/06/09 00:46:17;;;;;;;11.47;8.33;;;17.80;92.50;;;;;;5067409;28;20228;-72
2021/06/09 00:48:43;;;;;;;10.27;8.57;;;17.80;92.50;;;;;;5060310;28;20281;-72
2021/06/09 00:51:16;;;;;;;8.47;7.67;;;17.70;92.60;;;;;;5059088;28;20368;-72
2021/06/09 00:53:49;;;;;;;9.30;7.77;;;17.70;92.50;;;;;;5070384;28;20247;-71
2021/06/09 00:56:16;;;;;;;8.27;7.47;;;17.60;92.60;;;;;;5071583;28;20703;-72
2021/06/09 00:58:44;;;;;;;10.90;7.80;;;17.70;92.60;;;;;;5074662;28;20188;-71
2021/06/09 01:01:12;;;;;;;8.47;7.53;;;17.70;92.60;;;;;;5079207;28;20179;-72
2021/06/09 01:03:38;;;;;;;8.77;7.87;;;17.70;92.60;;;;;;5065680;28;20244;-72
2021/06/09 01:06:05;;;;;;;8.70;7.67;;;17.70;92.20;;;;;;5069472;28;20604;-71
2021/06/09 01:08:36;;;;;;;8.60;7.60;;;17.70;92.30;;;;;;5069359;28;20292;-72
2021/06/09 01:11:06;;;;;;;8.40;7.27;;;17.70;92.60;;;;;;5072923;28;20230;-72
2021/06/09 01:13:33;;;;;;;8.37;7.57;;;17.60;92.60;;;;;;5066074;28;20313;-73
2021/06/09 01:15:59;;;;;;;8.27;7.40;;;17.60;92.60;;;;;;5075832;28;20222;-71
2021/06/09 01:18:25;;;;;;;8.77;7.83;;;17.60;92.60;;;;;;5073352;28;20224;-72
2021/06/09 01:20:52;;;;;;;8.07;7.23;;;17.60;92.60;;;;;;5071103;28;20227;-72
2021/06/09 01:23:18;;;;;;;9.87;7.23;;;17.60;92.60;;;;;;5072301;28;20583;-72
2021/06/09 01:25:44;;;;;;;9.57;8.10;;;17.60;92.30;;;;;;5072257;28;20192;-72
2021/06/09 01:28:10;;;;;;;8.43;7.53;;;17.70;92.60;;;;;;5072112;28;20230;-72
2021/06/09 01:30:37;;;;;;;9.00;7.10;;;17.60;92.60;;;;;;5076421;28;20260;-72
2021/06/09 01:33:04;;;;;;;8.73;7.83;;;17.60;92.60;;;;;;5066749;28;20744;-72
2021/06/09 01:35:31;;;;;;;8.27;7.10;;;17.60;92.60;;;;;;5070621;28;20338;-71
2021/06/09 01:37:56;;;;;;;7.77;7.00;;;17.60;92.60;;;;;;5070979;28;20236;-72
2021/06/09 01:40:24;;;;;;;8.43;7.63;;;17.50;92.50;;;;;;5074296;28;20193;-72
2021/06/09 01:42:51;;;;;;;10.77;8.17;;;17.50;92.50;;;;;;5076607;28;20232;-72
2021/06/09 01:45:21;;;;;;;7.70;6.90;;;17.60;92.60;;;;;;5070620;28;20245;-72
2021/06/09 01:47:47;;;;;;;8.47;7.57;;;17.50;92.70;;;;;;5074475;28;20240;-72
2021/06/09 01:50:15;;;;;;;8.53;7.63;;;17.50;92.70;;;;;;5068422;28;20350;-72
2021/06/09 01:52:41;;;;;;;8.03;7.23;;;17.40;93.20;;;;;;5091504;28;20559;-72
2021/06/09 01:55:09;;;;;;;8.43;7.63;;;17.40;93.40;;;;;;5080449;28;20202;-72
2021/06/09 01:57:35;;;;;;;9.10;7.90;;;17.40;93.80;;;;;;5073473;28;20319;-72
2021/06/09 02:00:03;;;;;;;8.83;7.93;;;17.40;93.50;;;;;;5078208;28;20642;-72
2021/06/09 02:02:29;;;;;;;8.30;7.00;;;17.30;93.50;;;;;;5080764;28;20240;-72
2021/06/09 02:04:55;;;;;;;9.43;8.13;;;17.30;93.60;;;;;;5071979;28;20245;-72
2021/06/09 02:07:22;;;;;;;9.97;7.83;;;17.30;93.80;;;;;;5074774;28;20209;-72
2021/06/09 02:09:48;;;;;;;8.53;7.50;;;17.40;94.00;;;;;;5067236;28;20270;-72
2021/06/09 02:12:13;;;;;;;8.80;7.87;;;17.30;94.30;;;;;;5069857;28;20241;-72
2021/06/09 02:14:39;;;;;;;8.57;7.47;;;17.30;94.60;;;;;;5069983;28;20234;-72
2021/06/09 02:17:05;;;;;;;8.30;7.10;;;17.30;94.90;;;;;;5058460;28;20233;-73
2021/06/09 02:19:32;;;;;;;9.37;7.57;;;17.30;95.10;;;;;;5073385;28;20197;-72
2021/06/09 02:21:58;;;;;;;9.47;8.50;;;17.30;94.60;;;;;;5070661;28;20267;-71
2021/06/09 02:24:26;;;;;;;8.50;7.63;;;17.20;95.10;;;;;;5087496;28;20224;-72
2021/06/09 02:26:52;;;;;;;9.37;7.20;;;17.20;95.10;;;;;;5070117;28;20236;-72
2021/06/09 02:29:18;;;;;;;9.10;7.57;;;17.20;95.60;;;;;;5075011;28;20239;-72
2021/06/09 02:31:49;;;;;;;9.53;8.53;;;17.20;95.70;;;;;;5075575;28;20589;-72
2021/06/09 02:34:23;;;;;;;10.83;6.87;;;17.10;96.00;;;;;;5067674;28;20196;-72
2021/06/09 02:36:54;;;;;;;9.27;7.43;;;17.00;96.50;;;;;;5065491;28;20602;-72
2021/06/09 02:39:22;;;;;;;9.43;8.07;;;17.00;97.00;;;;;;5074075;28;20254;-72
2021/06/09 02:41:48;;;;;;;9.37;7.70;;;16.80;97.20;;;;;;5071324;28;20786;-72
2021/06/09 02:44:14;;;;;;;8.57;7.53;;;16.90;97.60;;;;;;5074851;28;20226;-72
2021/06/09 02:46:49;;;;;;;10.07;7.93;;;16.80;97.90;;;;;;5073375;28;20233;-72
2021/06/09 02:49:18;;;;;;;9.00;7.23;;;16.80;98.00;;;;;;5088323;28;20276;-72
2021/06/09 02:51:50;;;;;;;9.13;8.23;;;16.70;98.00;;;;;;5071497;28;20227;-72
2021/06/09 02:54:30;;;;;;;9.67;7.90;;;16.70;98.20;;;;;;5074826;28;20228;-72
2021/06/09 02:56:59;;;;;;;9.17;7.57;;;16.60;98.30;;;;;;5066412;28;20243;-72
2021/06/09 02:59:52;;;;;;;10.43;8.47;;;16.60;98.60;;;;;;5072511;28;20239;-72
2021/06/09 03:02:41;;;;;;;9.47;8.47;;;16.60;98.90;;;;;;5072222;28;20255;-72
2021/06/09 03:05:27;;;;;;;8.70;7.80;;;16.50;99.00;;;;;;5073934;28;20227;-72
2021/06/09 03:08:05;;;;;;;9.40;8.40;;;16.50;99.50;;;;;;5081469;28;20332;-72
2021/06/09 03:10:34;;;;;;;9.37;8.47;;;16.50;99.60;;;;;;5071571;28;20199;-72
2021/06/09 03:13:06;;;;;;;10.27;8.23;;;16.50;99.60;;;;;;5069416;28;20226;-72
2021/06/09 03:15:38;;;;;;;9.37;8.23;;;16.50;99.70;;;;;;5072588;28;20251;-72
2021/06/09 03:18:18;;;;;;;9.57;8.23;;;16.50;99.80;;;;;;5066599;28;20232;-72
2021/06/09 03:21:15;;;;;;;9.37;8.47;;;16.40;99.80;;;;;;5071049;28;20290;-72
2021/06/09 03:24:10;;;;;;;8.63;7.73;;;16.40;99.90;;;;;;5068125;28;20219;-73
2021/06/09 03:27:10;;;;;;;9.27;8.07;;;16.40;99.90;;;;;;5069648;28;20589;-72
2021/06/09 03:29:52;;;;;;;10.43;8.57;;;16.40;99.90;;;;;;5058770;28;20228;-72
2021/06/09 03:32:39;;;;;;;9.90;8.87;;;16.30;99.90;;;;;;5069252;28;20229;-72
2021/06/09 03:35:13;;;;;;;9.67;8.70;;;16.40;99.90;;;;;;5088834;28;20773;-72
2021/06/09 03:37:44;;;;;;;10.63;9.13;;;16.30;99.90;;;;;;5066770;28;20563;-72
2021/06/09 03:40:16;;;;;;;9.57;8.57;;;16.30;99.90;;;;;;5064864;28;20353;-72
2021/06/09 03:42:48;;;;;;;10.00;9.00;;;16.30;99.90;;;;;;5065020;28;20225;-72
2021/06/09 03:45:15;;;;;;;13.07;9.60;;;16.30;99.90;;;;;;5068746;28;20234;-72
2021/06/09 03:47:42;;;;;;;12.87;9.40;;;16.30;99.90;;;;;;5074193;28;20249;-72
2021/06/09 03:50:09;;;;;;;14.23;9.50;;;16.40;99.90;;;;;;5066961;28;20706;-71
2021/06/09 03:52:37;;;;;;;10.20;8.87;;;16.30;99.90;;;;;;5073641;28;20195;-72
2021/06/09 03:55:08;;;;;;;10.13;9.13;;;16.30;99.90;;;;;;5076562;28;20210;-72
2021/06/09 03:57:37;;;;;;;11.47;8.80;;;16.30;99.90;;;;;;5066937;28;20597;-72
2021/06/09 04:00:05;;;;;;;9.77;8.73;;;16.30;99.90;;;;;;5066328;28;20224;-72
2021/06/09 04:02:31;;;;;;;11.23;9.73;;;16.30;99.90;;;;;;5063951;28;20219;-72
2021/06/09 04:04:58;;;;;;;10.87;9.40;;;16.30;99.90;;;;;;5066408;28;20312;-72
2021/06/09 04:07:27;;;;;;;10.30;9.20;;;16.40;99.90;;;;;;5067382;28;20222;-72
2021/06/09 04:09:54;;;;;;;11.53;9.60;;;16.30;99.90;;;;;;5058353;28;20225;-71
2021/06/09 04:12:21;;;;;;;12.07;9.80;;;16.40;99.90;;;;;;5070740;28;20598;-72
2021/06/09 04:14:49;;;;;;;11.23;10.00;;;16.40;99.90;;;;;;5058814;28;20224;-71
2021/06/09 04:17:28;;;;;;;11.00;9.50;;;16.40;99.90;;;;;;5067426;28;20415;-74
2021/06/09 04:19:59;;;;;;;11.00;9.40;;;16.40;99.90;;;;;;5071259;28;20296;-71
2021/06/09 04:22:25;;;;;;;10.50;9.27;;;16.50;99.50;;;;;;5072506;28;20166;-71
2021/06/09 04:24:51;;;;;;;11.50;9.70;;;16.60;98.40;;;;;;5071803;28;20237;-71
2021/06/09 04:27:27;;;;;;;11.13;9.17;;;16.80;97.10;;;;;;5066701;28;20233;-72
2021/06/09 04:29:55;;;;;;;10.83;9.77;;;16.70;96.10;;;;;;5067646;28;20230;-72
2021/06/09 04:32:21;;;;;;;12.30;9.23;;;16.80;96.20;;;;;;5064620;28;20219;-72
2021/06/09 04:34:53;;;;;;;11.60;9.37;;;16.70;96.40;;;;;;5076859;28;20183;-72
2021/06/09 04:37:22;;;;;;;9.37;8.47;;;16.80;96.70;;;;;;5068639;28;20663;-72
2021/06/09 04:39:48;;;;;;;10.10;9.07;;;16.90;96.60;;;;;;5067770;28;20307;-71
2021/06/09 04:42:15;;;;;;;10.93;9.33;;;17.00;96.40;;;;;;5072853;28;20247;-71
2021/06/09 04:44:42;;;;;;;12.37;9.00;;;17.00;95.90;;;;;;5069089;28;21032;-72
2021/06/09 04:47:11;;;;;;;10.50;9.27;;;17.10;95.50;;;;;;5071420;28;20238;-72
2021/06/09 04:49:39;;;;;;;10.37;9.40;;;17.30;94.90;;;;;;5077434;28;20189;-72
2021/06/09 04:52:07;;;;;;;10.93;9.10;;;17.40;94.00;;;;;;5073721;28;20255;-72
2021/06/09 04:54:33;;;;;;;10.37;9.17;;;17.60;93.10;;;;;;5079580;28;21179;-72
2021/06/09 04:56:59;;;;;;;10.10;8.70;;;17.70;92.20;;;;;;5076124;28;20633;-72
2021/06/09 04:59:25;;;;;;;10.70;9.27;;;17.90;92.00;;;;;;5086286;28;20308;-72
2021/06/09 05:01:51;;;;;;;9.93;8.93;;;18.20;90.10;;;;;;5067564;28;20594;-72
2021/06/09 05:04:17;;;;;;;9.77;8.40;;;18.40;87.10;;;;;;5074572;28;20217;-72
2021/06/09 05:06:43;;;;;;;11.40;8.57;;;18.40;86.30;;;;;;5071199;28;20237;-72
2021/06/09 05:09:10;;;;;;;9.60;8.63;;;18.40;85.30;;;;;;5084056;28;20283;-72
2021/06/09 05:11:41;;;;;;;9.00;8.10;;;18.60;85.70;;;;;;5064461;28;20235;-72
2021/06/09 05:14:20;;;;;;;10.37;8.77;;;18.80;84.40;;;;;;5068585;28;20228;-72
2021/06/09 05:16:50;;;;;;;10.03;8.97;;;18.80;82.20;;;;;;5068567;28;20188;-72
2021/06/09 05:19:23;;;;;;;10.53;8.43;;;18.90;83.30;;;;;;5078574;28;20182;-72
2021/06/09 05:21:52;;;;;;;10.10;8.43;;;18.80;83.30;;;;;;5071425;28;20682;-72
2021/06/09 05:24:21;;;;;;;8.97;8.03;;;18.70;84.50;;;;;;5076509;28;20266;-72
2021/06/09 05:26:48;;;;;;;8.80;7.93;;;18.70;86.10;;;;;;5068985;28;20732;-72
2021/06/09 05:29:16;;;;;;;11.87;9.43;;;18.60;86.30;;;;;;5075767;28;20200;-72
2021/06/09 05:31:46;;;;;;;10.10;8.80;;;18.60;87.30;;;;;;5072345;28;20238;-72
2021/06/09 05:34:12;;;;;;;10.57;8.77;;;18.70;86.80;;;;;;5071013;28;20206;-72
2021/06/09 05:36:38;;;;;;;9.37;8.37;;;18.80;85.70;;;;;;5063527;28;20584;-72
2021/06/09 05:39:05;;;;;;;9.53;8.60;;;18.70;86.00;;;;;;5073498;28;20294;-72
2021/06/09 05:41:31;;;;;;;10.37;9.30;;;18.70;86.10;;;;;;5068239;28;20226;-72
2021/06/09 05:43:56;;;;;;;10.63;8.90;;;18.60;87.20;;;;;;5075109;28;20566;-72
2021/06/09 05:46:28;;;;;;;11.13;8.60;;;18.80;86.10;;;;;;5075070;28;20232;-72
2021/06/09 05:48:54;;;;;;;11.63;9.00;;;18.90;85.10;;;;;;5079047;28;20225;-72
2021/06/09 05:51:22;;;;;;;9.87;8.43;;;18.90;85.90;;;;;;5086313;28;20658;-71
2021/06/09 05:53:53;;;;;;;10.77;9.07;;;19.10;84.90;;;;;;5076297;28;20233;-72
2021/06/09 05:56:19;;;;;;;10.63;9.53;;;19.30;82.90;;;;;;5071278;28;20268;-72
2021/06/09 05:58:44;;;;;;;10.77;9.17;;;19.20;80.90;;;;;;5073832;28;20182;-72
2021/06/09 06:01:11;;;;;;;11.27;9.50;;;19.20;80.80;;;;;;5073648;28;20281;-72
2021/06/09 06:03:39;;;;;;;11.90;9.10;;;19.30;81.20;;;;;;5068421;28;20228;-72
2021/06/09 06:06:07;;;;;;;10.13;9.03;;;19.40;78.50;;;;;;5070605;28;20229;-72
2021/06/09 06:08:36;;;;;;;10.43;9.43;;;19.60;79.00;;;;;;5071751;28;20329;-72
2021/06/09 06:11:13;;;;;;;10.40;8.80;;;19.70;77.40;;;;;;5066747;28;20276;-72
2021/06/09 06:13:40;;;;;;;9.87;8.83;;;19.70;78.80;;;;;;5085099;28;20193;-72
2021/06/09 06:16:06;;;;;;;10.30;8.63;;;19.80;77.00;;;;;;5077915;28;20595;-72
2021/06/09 06:18:38;;;;;;;10.80;9.40;;;20.10;76.10;;;;;;5070806;28;20219;-72
2021/06/09 06:21:05;;;;;;;11.40;8.83;;;20.40;74.60;;;;;;5074479;28;20273;-72
2021/06/09 06:23:31;;;;;;;10.47;9.47;;;20.60;73.60;;;;;;5073009;28;21025;-72
2021/06/09 06:25:58;;;;;;;10.47;8.77;;;20.90;71.90;;;;;;5076752;28;21412;-73
2021/06/09 06:28:25;;;;;;;12.07;8.87;;;21.00;70.60;;;;;;5069730;28;20188;-72
2021/06/09 06:30:52;;;;;;;10.47;7.83;;;21.20;69.60;;;;;;5070510;28;22777;-72
2021/06/09 06:33:21;;;;;;;10.23;8.30;;;21.30;69.10;;;;;;5089666;28;20224;-72
2021/06/09 06:35:48;;;;;;;9.10;8.17;;;21.30;69.40;;;;;;5066595;28;20230;-73
2021/06/09 06:38:14;;;;;;;10.80;8.77;;;21.50;68.80;;;;;;5072435;28;20232;-73
2021/06/09 06:40:42;;;;;;;8.83;7.93;;;21.70;66.00;;;;;;5074228;28;20197;-73
2021/06/09 06:43:09;;;;;;;10.33;8.30;;;21.80;65.80;;;;;;5079720;28;20263;-74
2021/06/09 06:45:35;;;;;;;11.90;8.53;;;21.60;67.10;;;;;;5068521;28;20238;-73
2021/06/09 06:48:01;;;;;;;10.17;7.73;;;21.60;68.10;;;;;;5065849;28;20246;-73
2021/06/09 06:50:27;;;;;;;9.13;8.13;;;21.70;67.80;;;;;;5067908;28;20634;-72
2021/06/09 06:52:53;;;;;;;7.90;7.13;;;21.70;67.40;;;;;;5070797;28;20324;-73
2021/06/09 06:55:22;;;;;;;9.00;7.70;;;21.80;65.80;;;;;;5072156;28;20781;-73
2021/06/09 06:57:48;;;;;;;9.07;7.97;;;21.80;65.80;;;;;;5074519;28;20234;-72
2021/06/09 07:00:20;;;;;;;9.77;7.20;;;22.00;65.00;;;;;;5070484;28;20221;-72
2021/06/09 07:02:49;;;;;;;9.23;7.30;;;22.00;64.00;;;;;;5070659;28;20345;-72
2021/06/09 07:05:16;;;;;;;7.93;7.10;;;21.70;64.50;;;;;;5073459;28;20349;-73
2021/06/09 07:07:42;;;;;;;9.40;8.37;;;21.60;65.70;;;;;;5067290;28;20214;-73
2021/06/09 07:10:12;;;;;;;9.03;8.13;;;21.30;65.40;;;;;;5091155;28;20239;-73
2021/06/09 07:12:39;;;;;;;8.67;7.87;;;21.20;68.20;;;;;;5074435;28;20230;-73
2021/06/09 07:15:10;;;;;;;8.80;7.67;;;21.30;68.60;;;;;;5075732;28;20301;-73
2021/06/09 07:17:41;;;;;;;8.77;7.87;;;21.40;68.50;;;;;;5071131;28;20233;-73
2021/06/09 07:20:11;;;;;;;8.00;7.20;;;21.40;67.10;;;;;;5069583;28;20228;-74
2021/06/09 07:22:38;;;;;;;8.50;7.60;;;21.50;67.70;;;;;;5067525;28;20641;-73
2021/06/09 07:25:05;;;;;;;9.20;7.43;;;21.60;66.20;;;;;;5073657;28;20193;-73
2021/06/09 07:27:36;;;;;;;8.03;7.23;;;21.70;67.40;;;;;;5066522;28;20316;-73
2021/06/09 07:30:05;;;;;;;10.40;7.40;;;21.90;65.20;;;;;;5072921;28;20672;-73
2021/06/09 07:32:31;;;;;;;9.20;7.27;;;22.00;65.40;;;;;;5069978;28;20230;-73
2021/06/09 07:34:57;;;;;;;8.60;7.33;;;22.20;64.30;;;;;;5082369;28;20858;-73
2021/06/09 07:37:23;;;;;;;9.73;7.17;;;22.30;64.10;;;;;;5068516;28;20198;-73
2021/06/09 07:39:56;;;;;;;8.37;7.50;;;22.70;61.90;;;;;;5063498;28;20889;-73
2021/06/09 07:42:26;;;;;;;8.20;7.40;;;22.70;61.40;;;;;;5081972;28;20229;-73
2021/06/09 07:44:57;;;;;;;9.47;6.73;;;22.90;61.20;;;;;;5057237;28;20302;-73
2021/06/09 07:47:24;;;;;;;8.07;7.27;;;22.80;61.60;;;;;;5064783;28;20270;-73
2021/06/09 07:49:54;;;;;;;8.07;7.30;;;22.90;59.30;;;;;;5086627;28;20190;-74
2021/06/09 07:52:21;;;;;;;8.60;7.33;;;23.00;59.80;;;;;;5074165;28;20192;-74
2021/06/09 07:54:50;;;;;;;7.77;7.07;;;22.90;58.80;;;;;;5071023;28;20334;-73
2021/06/09 07:57:17;;;;;;;7.60;6.70;;;22.80;59.80;;;;;;5069269;28;20235;-71
2021/06/09 07:59:44;;;;;;;9.40;7.83;;;22.90;58.90;;;;;;5068113;28;20232;-71
2021/06/09 08:02:12;;;;;;;8.40;7.30;;;22.90;59.50;;;;;;5065814;28;20222;-72
2021/06/09 08:04:38;;;;;;;7.73;6.93;;;22.90;60.10;;;;;;5056754;28;20269;-72
2021/06/09 08:07:04;;;;;;;8.80;7.83;;;22.90;60.10;;;;;;5062289;28;20258;-69
2021/06/09 08:09:31;;;;;;;8.60;7.70;;;23.20;59.40;;;;;;5070689;28;20242;-69
2021/06/09 08:11:59;;;;;;;8.27;7.37;;;23.40;58.30;;;;;;5063978;28;20690;-70
2021/06/09 08:14:25;;;;;;;8.43;7.40;;;23.50;58.50;;;;;;5060113;28;20222;-70
2021/06/09 08:16:51;;;;;;;8.00;6.93;;;23.30;58.50;;;;;;5076703;28;20327;-69
2021/06/09 08:19:17;;;;;;;9.00;7.37;;;23.40;59.00;;;;;;5049257;28;20505;-69
2021/06/09 08:21:43;;;;;;;10.00;7.80;;;23.50;58.70;;;;;;5067061;28;20232;-68
2021/06/09 08:24:08;;;;;;;8.00;7.17;;;23.40;58.50;;;;;;5069014;28;20315;-70
2021/06/09 08:26:35;;;;;;;9.30;7.40;;;23.60;58.50;;;;;;5073382;28;20245;-69
2021/06/09 08:29:01;;;;;;;8.03;7.20;;;23.60;58.50;;;;;;5071481;28;20239;-68
2021/06/09 08:31:29;;;;;;;9.17;7.57;;;23.90;58.80;;;;;;5071651;28;20321;-68
2021/06/09 08:33:57;;;;;;;7.80;6.87;;;24.10;58.10;;;;;;5059369;28;20227;-69
2021/06/09 08:36:24;;;;;;;7.67;6.90;;;24.30;55.60;;;;;;5041963;22;20665;-68
2021/06/09 08:38:51;;;;;;;7.90;7.10;;;24.30;55.90;;;;;;5013542;28;20710;-68
2021/06/09 08:41:20;;;;;;;7.50;6.73;;;24.30;56.40;;;;;;5010261;28;20244;-68
2021/06/09 08:43:48;;;;;;;8.27;6.80;;;24.60;55.60;;;;;;5011962;28;20200;-69
2021/06/09 08:46:15;;;;;;;10.70;7.90;;;24.60;56.40;;;;;;5009773;28;20588;-69
2021/06/09 08:48:44;;;;;;;8.18;7.38;;;24.70;55.70;;;;;;5008519;28;20584;-69
2021/06/09 08:51:13;;;;;;;8.20;6.93;;;24.90;54.90;;;;;;5025495;28;20224;-68
2021/06/09 08:53:48;;;;;;;8.38;6.90;;;24.80;54.50;;;;;;5011713;28;20259;-68
2021/06/09 08:56:14;;;;;;;8.33;7.40;;;24.90;54.30;;;;;;5008576;28;21036;-68
2021/06/09 08:58:41;;;;;;;10.60;7.40;;;25.00;52.20;;;;;;5019197;28;20188;-68
2021/06/09 09:01:08;;;;;;;8.48;7.22;;;24.50;54.20;;;;;;5018866;28;20190;-69
2021/06/09 09:03:40;;;;;;;9.60;7.83;;;24.60;54.60;;;;;;5021867;28;20221;-65
2021/06/09 09:06:06;;;;;;;7.97;7.07;;;24.90;52.00;;;;;;5040179;28;20321;-68
2021/06/09 09:08:32;;;;;;;7.35;6.55;;;24.90;52.40;;;;;;5040618;28;20232;-67
2021/06/09 09:10:58;;;;;;;7.72;6.90;;;25.10;51.70;;;;;;5041560;28;20273;-66
2021/06/09 09:13:25;;;;;;;7.22;6.40;;;25.20;50.90;;;;;;5040133;28;20193;-68
2021/06/09 09:15:51;;;;;;;7.50;6.65;;;25.00;51.20;;;;;;5041311;28;20285;-68
2021/06/09 09:18:18;;;;;;;7.63;6.35;;;25.40;52.10;;;;;;5040956;28;20232;-68
2021/06/09 09:20:47;;;;;;;7.72;6.72;;;25.60;49.80;;;;;;5040609;28;20230;-68
2021/06/09 09:23:31;;;;;;;6.85;6.15;;;25.50;51.10;;;;;;5039609;28;20279;-68
2021/06/09 09:25:59;;;;;;;8.20;6.18;;;25.80;51.20;;;;;;5040466;28;20275;-68
2021/06/09 09:28:33;;;;;;;6.60;5.93;;;26.20;49.90;;;;;;5040879;28;20225;-68
2021/06/09 09:31:28;;;;;;;6.25;5.38;;;26.50;46.60;;;;;;5039791;28;20234;-68
2021/06/09 09:33:53;;;;;;;5.88;5.28;;;26.50;46.80;;;;;;5025082;28;20728;-68
2021/06/09 09:36:30;;;;;;;6.03;5.43;;;26.50;46.40;;;;;;5038977;28;20237;-68
2021/06/09 09:38:59;;;;;;;6.10;5.07;;;26.30;44.20;;;;;;5042549;28;20260;-68
2021/06/09 09:41:34;;;;;;;5.03;4.60;;;26.30;44.20;;;;;;5039424;28;20623;-68
2021/06/09 09:44:02;;;;;;;5.10;4.60;;;26.60;44.80;;;;;;5039408;28;20228;-68
2021/06/09 09:46:39;;;;;;;5.45;4.95;;;27.10;43.20;;;;;;5043471;28;20264;-70
2021/06/09 09:49:14;;;;;;;5.55;5.05;;;27.30;41.80;;;;;;5041743;28;20218;-67
2021/06/09 09:51:47;;;;;;;5.60;5.10;;;27.50;43.30;;;;;;5035841;28;20916;-66
2021/06/09 09:54:14;;;;;;;5.15;4.20;;;27.60;43.40;;;;;;5037069;28;20705;-67
2021/06/09 09:56:41;;;;;;;4.65;4.25;;;27.60;41.60;;;;;;5038339;28;21278;-68
2021/06/09 09:59:11;;;;;;;4.97;4.50;;;27.20;40.10;;;;;;5035034;28;20258;-66
2021/06/09 10:01:39;;;;;;;4.40;4.00;;;26.70;41.40;;;;;;5039271;28;20190;-67
2021/06/09 10:04:07;;;;;;;5.22;4.20;;;26.50;42.00;;;;;;5033961;28;20241;-68
2021/06/09 10:06:40;;;;;;;4.75;4.35;;;26.50;42.00;;;;;;5038641;28;20238;-66
2021/06/09 10:09:11;;;;;;;4.50;4.10;;;26.60;41.40;;;;;;5038203;28;20250;-66
2021/06/09 10:11:57;;;;;;;5.05;4.65;;;26.50;43.30;;;;;;5039264;28;20700;-71
2021/06/09 10:14:29;;;;;;;5.63;4.95;;;26.30;42.50;;;;;;5030858;28;20227;-70
2021/06/09 10:17:01;;;;;;;5.00;4.60;;;26.10;43.40;;;;;;5040723;28;20316;-70
2021/06/09 10:19:35;;;;;;;5.65;5.03;;;25.90;44.00;;;;;;5042083;28;20277;-71
2021/06/09 10:22:16;;;;;;;5.88;5.38;;;25.90;44.40;;;;;;5038572;28;20224;-70
2021/06/09 10:24:43;;;;;;;7.15;5.88;;;25.80;45.70;;;;;;5041842;28;20222;-70
2021/06/09 10:27:09;;;;;;;5.85;5.30;;;25.70;44.80;;;;;;5039790;28;20238;-70
2021/06/09 10:29:35;;;;;;;6.10;5.57;;;25.70;48.10;;;;;;5041190;28;20587;-70
2021/06/09 10:32:10;;;;;;;6.60;6.00;;;25.70;48.50;;;;;;5041428;28;20292;-71
2021/06/09 10:34:38;;;;;;;6.72;5.35;;;25.80;47.80;;;;;;5037274;28;20535;-71
2021/06/09 10:37:06;;;;;;;5.43;4.78;;;26.00;47.10;;;;;;5040737;28;20191;-71
2021/06/09 10:39:35;;;;;;;5.30;4.85;;;26.40;46.90;;;;;;5039596;28;20231;-71
2021/06/09 10:42:07;;;;;;;5.45;4.93;;;26.40;44.60;;;;;;5038752;28;20239;-70
2021/06/09 10:44:39;;;;;;;5.82;5.28;;;26.50;43.00;;;;;;5040807;28;20277;-70
2021/06/09 10:47:10;;;;;;;5.40;4.90;;;26.60;43.90;;;;;;5041219;28;20249;-71
2021/06/09 10:49:38;;;;;;;7.55;6.35;;;26.50;47.30;;;;;;5040028;28;20524;-71
2021/06/09 10:52:05;;;;;;;6.45;5.85;;;26.40;47.20;;;;;;5038957;28;20641;-72
2021/06/09 10:54:31;;;;;;;6.50;5.90;;;26.30;47.60;;;;;;5040455;28;20245;-71
2021/06/09 10:56:57;;;;;;;6.20;5.55;;;26.40;49.60;;;;;;5047351;28;20280;-71
2021/06/09 10:59:32;;;;;;;7.03;6.32;;;26.60;47.40;;;;;;5043246;28;20226;-71
2021/06/09 11:02:05;;;;;;;8.32;6.20;;;26.40;46.60;;;;;;5040246;28;20225;-71
2021/06/09 11:04:43;;;;;;;6.20;5.60;;;26.80;43.00;;;;;;5038644;28;20217;-71
2021/06/09 11:07:29;;;;;;;6.07;5.13;;;26.80;45.50;;;;;;5040825;28;20238;-71
2021/06/09 11:09:56;;;;;;;5.28;4.78;;;26.70;42.70;;;;;;5037139;28;20249;-72
2021/06/09 11:12:24;;;;;;;5.80;5.28;;;26.80;42.50;;;;;;5038894;28;20221;-72
2021/06/09 11:15:07;;;;;;;5.60;5.10;;;27.10;41.30;;;;;;5040015;28;20236;-71
2021/06/09 11:17:45;;;;;;;5.80;4.78;;;27.40;41.40;;;;;;5039433;28;20268;-71
2021/06/09 11:20:14;;;;;;;6.22;5.05;;;27.30;41.80;;;;;;5042037;28;20313;-70
2021/06/09 11:22:48;;;;;;;4.93;4.53;;;27.30;40.40;;;;;;5039014;28;20229;-71
2021/06/09 11:25:23;;;;;;;6.43;4.43;;;27.30;41.20;;;;;;5038011;28;20248;-71
2021/06/09 11:28:02;;;;;;;4.88;4.47;;;27.10;43.00;;;;;;5038716;28;20244;-70
2021/06/09 11:30:31;;;;;;;4.88;4.47;;;27.70;41.80;;;;;;5036526;28;20236;-71
2021/06/09 11:33:08;;;;;;;6.35;4.93;;;28.30;40.80;;;;;;5036962;28;20222;-71
2021/06/09 11:35:41;;;;;;;5.28;4.85;;;28.60;40.80;;;;;;5035826;28;20253;-71
2021/06/09 11:38:13;;;;;;;4.70;4.30;;;28.90;42.70;;;;;;5037100;28;20272;-71
2021/06/09 11:40:52;;;;;;;4.72;4.28;;;29.10;38.10;;;;;;5034295;28;20191;-71
2021/06/09 11:43:23;;;;;;;4.07;3.72;;;28.90;37.10;;;;;;5038238;28;20194;-72
2021/06/09 11:46:02;;;;;;;3.72;3.42;;;29.00;35.60;;;;;;5032746;28;20238;-72
2021/06/09 11:48:30;;;;;;;4.25;3.70;;;29.90;35.50;;;;;;5037003;28;20238;-71
2021/06/09 11:51:17;;;;;;;3.38;3.00;;;31.50;31.70;;;;;;5038532;28;20309;-72
2021/06/09 11:53:47;;;;;;;3.47;3.17;;;32.50;30.00;;;;;;5036738;28;20240;-73
2021/06/09 11:56:31;;;;;;;3.40;3.10;;;33.50;28.60;;;;;;5053563;28;20245;-69
2021/06/09 11:59:05;;;;;;;3.03;2.83;;;34.00;27.00;;;;;;5038557;28;20586;-73
2021/06/09 12:01:43;;;;;;;3.20;2.97;;;34.20;25.80;;;;;;5038190;28;20190;-73
2021/06/09 12:04:20;;;;;;;3.20;2.90;;;33.40;27.20;;;;;;5032415;28;20305;-72
2021/06/09 12:06:52;;;;;;;3.13;2.83;;;33.30;27.70;;;;;;5051123;28;20261;-73
2021/06/09 12:09:20;;;;;;;2.83;2.63;;;33.80;26.30;;;;;;5052279;28;20306;-72
2021/06/09 12:11:48;;;;;;;3.08;2.88;;;34.00;25.80;;;;;;5030254;28;20233;-72
2021/06/09 12:14:20;;;;;;;3.50;3.20;;;33.60;27.80;;;;;;5037414;28;20230;-71
2021/06/09 12:16:46;;;;;;;3.83;3.53;;;33.50;28.60;;;;;;5034352;28;20187;-71
2021/06/09 12:19:28;;;;;;;4.18;3.88;;;33.20;29.60;;;;;;5036073;28;20182;-72
2021/06/09 12:21:59;;;;;;;3.95;3.65;;;32.10;29.50;;;;;;5033186;28;20226;-72
2021/06/09 12:24:25;;;;;;;3.35;3.05;;;31.40;31.40;;;;;;5035062;28;20313;-73
2021/06/09 12:27:03;;;;;;;3.50;3.20;;;32.20;29.70;;;;;;5037822;28;20340;-70
2021/06/09 12:29:32;;;;;;;2.63;2.42;;;32.50;29.60;;;;;;5034810;28;20252;-71
2021/06/09 12:32:00;;;;;;;3.20;3.00;;;31.00;29.60;;;;;;5036684;28;20231;-71
2021/06/09 12:34:32;;;;;;;4.47;3.20;;;30.20;30.80;;;;;;5037419;28;20273;-70
2021/06/09 12:37:15;;;;;;;4.00;3.70;;;29.90;32.80;;;;;;5039037;28;20875;-71
2021/06/09 12:39:41;;;;;;;4.65;4.25;;;29.70;32.80;;;;;;5037895;28;20250;-71
2021/06/09 12:42:15;;;;;;;3.95;3.55;;;29.30;33.60;;;;;;5031857;28;20242;-71
2021/06/09 12:44:49;;;;;;;3.75;3.45;;;29.40;34.00;;;;;;5036921;28;20324;-71
2021/06/09 12:47:33;;;;;;;3.20;3.00;;;30.70;34.80;;;;;;5034970;28;20284;-71
2021/06/09 12:50:19;;;;;;;3.45;3.15;;;32.50;28.20;;;;;;5036585;28;20229;-71
2021/06/09 12:52:51;;;;;;;3.60;3.17;;;34.40;27.00;;;;;;5036334;28;20190;-72
2021/06/09 12:55:31;;;;;;;3.78;3.38;;;35.50;26.80;;;;;;5035114;28;20190;-71